Terminal Aerodrome Forecast
Issued by NWS

Home | Current Version | Previous Version | Text Only | Print | Product List | Glossary On
Versions: 1 2 3 4 5 6 7 8 9 10 11 12
000
FTUS44 KCRP 071733
TAFALI
TAF
KALI 071733Z 0718/0818 15018G24KT P6SM SCT040 SCT050
     FM080300 15012KT P6SM FEW018
     FM080900 15011KT P6SM BKN014
     FM081500 17018G22KT P6SM SCT025 BKN035=

USA.gov is the U.S. government's official web portal to all federal, state and local government web resources and services.